sensor_id;sensor_type;location;lat;lon;timestamp;P1;durP1;ratioP1;P2;durP2;ratioP2
49502;SDS011;35409;48.776;9.204;2023-07-08T00:00:39;10.07;;;7.45;;
49502;SDS011;35409;48.776;9.204;2023-07-08T00:03:05;10.45;;;6.97;;
49502;SDS011;35409;48.776;9.204;2023-07-08T00:05:30;12.15;;;7.93;;
49502;SDS011;35409;48.776;9.204;2023-07-08T00:07:57;9.15;;;7.03;;
49502;SDS011;35409;48.776;9.204;2023-07-08T00:10:23;8.88;;;7.15;;
49502;SDS011;35409;48.776;9.204;2023-07-08T00:12:51;8.52;;;6.88;;
49502;SDS011;35409;48.776;9.204;2023-07-08T00:15:18;10.95;;;8.05;;
49502;SDS011;35409;48.776;9.204;2023-07-08T00:17:49;8.45;;;6.75;;
49502;SDS011;35409;48.776;9.204;2023-07-08T00:22:57;10.98;;;7.88;;
49502;SDS011;35409;48.776;9.204;2023-07-08T00:25:25;9.27;;;7.25;;
49502;SDS011;35409;48.776;9.204;2023-07-08T00:27:51;9.27;;;7.25;;
49502;SDS011;35409;48.776;9.204;2023-07-08T00:30:21;9.20;;;7.30;;
49502;SDS011;35409;48.776;9.204;2023-07-08T00:32:47;10.25;;;6.95;;
49502;SDS011;35409;48.776;9.204;2023-07-08T00:35:18;11.15;;;7.47;;
49502;SDS011;35409;48.776;9.204;2023-07-08T00:37:48;10.00;;;7.17;;
49502;SDS011;35409;48.776;9.204;2023-07-08T00:40:18;10.80;;;7.00;;
49502;SDS011;35409;48.776;9.204;2023-07-08T00:42:46;9.68;;;7.25;;
49502;SDS011;35409;48.776;9.204;2023-07-08T00:45:18;11.45;;;6.57;;
49502;SDS011;35409;48.776;9.204;2023-07-08T00:47:45;11.57;;;7.60;;
49502;SDS011;35409;48.776;9.204;2023-07-08T00:50:13;9.00;;;7.25;;
49502;SDS011;35409;48.776;9.204;2023-07-08T00:52:39;7.65;;;6.63;;
49502;SDS011;35409;48.776;9.204;2023-07-08T00:55:05;12.55;;;6.95;;
49502;SDS011;35409;48.776;9.204;2023-07-08T00:57:34;10.10;;;7.32;;
49502;SDS011;35409;48.776;9.204;2023-07-08T01:00:12;11.85;;;7.22;;
49502;SDS011;35409;48.776;9.204;2023-07-08T01:02:42;12.67;;;7.30;;
49502;SDS011;35409;48.776;9.204;2023-07-08T01:05:19;10.05;;;6.90;;
49502;SDS011;35409;48.776;9.204;2023-07-08T01:07:50;9.52;;;7.22;;
49502;SDS011;35409;48.776;9.204;2023-07-08T01:10:20;11.30;;;7.00;;
49502;SDS011;35409;48.776;9.204;2023-07-08T01:12:52;8.77;;;6.97;;
49502;SDS011;35409;48.776;9.204;2023-07-08T01:15:21;9.65;;;6.90;;
49502;SDS011;35409;48.776;9.204;2023-07-08T01:17:50;8.80;;;6.22;;
49502;SDS011;35409;48.776;9.204;2023-07-08T01:20:18;7.95;;;6.43;;
49502;SDS011;35409;48.776;9.204;2023-07-08T01:22:44;9.63;;;6.55;;
49502;SDS011;35409;48.776;9.204;2023-07-08T01:25:10;10.38;;;6.47;;
49502;SDS011;35409;48.776;9.204;2023-07-08T01:27:39;8.85;;;6.95;;
49502;SDS011;35409;48.776;9.204;2023-07-08T01:30:08;8.82;;;6.70;;
49502;SDS011;35409;48.776;9.204;2023-07-08T01:32:40;10.73;;;7.30;;
49502;SDS011;35409;48.776;9.204;2023-07-08T01:35:10;9.27;;;7.35;;
49502;SDS011;35409;48.776;9.204;2023-07-08T01:37:38;8.85;;;6.50;;
49502;SDS011;35409;48.776;9.204;2023-07-08T01:42:49;9.68;;;7.22;;
49502;SDS011;35409;48.776;9.204;2023-07-08T01:45:17;9.95;;;6.93;;
49502;SDS011;35409;48.776;9.204;2023-07-08T01:47:45;12.88;;;7.55;;
49502;SDS011;35409;48.776;9.204;2023-07-08T01:50:12;8.57;;;6.15;;
49502;SDS011;35409;48.776;9.204;2023-07-08T01:52:38;11.07;;;7.32;;
49502;SDS011;35409;48.776;9.204;2023-07-08T01:55:05;13.25;;;7.47;;
49502;SDS011;35409;48.776;9.204;2023-07-08T01:57:31;8.52;;;6.47;;
49502;SDS011;35409;48.776;9.204;2023-07-08T01:59:57;12.40;;;7.85;;
49502;SDS011;35409;48.776;9.204;2023-07-08T02:02:23;10.23;;;7.00;;
49502;SDS011;35409;48.776;9.204;2023-07-08T02:04:49;10.90;;;7.10;;
49502;SDS011;35409;48.776;9.204;2023-07-08T02:07:15;11.55;;;7.13;;
49502;SDS011;35409;48.776;9.204;2023-07-08T02:09:41;9.85;;;7.07;;
49502;SDS011;35409;48.776;9.204;2023-07-08T02:12:07;9.70;;;7.10;;
49502;SDS011;35409;48.776;9.204;2023-07-08T02:14:33;12.18;;;7.95;;
49502;SDS011;35409;48.776;9.204;2023-07-08T02:16:59;10.40;;;7.32;;
49502;SDS011;35409;48.776;9.204;2023-07-08T02:19:25;9.23;;;6.90;;
49502;SDS011;35409;48.776;9.204;2023-07-08T02:21:52;10.45;;;7.10;;
49502;SDS011;35409;48.776;9.204;2023-07-08T02:24:18;7.72;;;6.30;;
49502;SDS011;35409;48.776;9.204;2023-07-08T02:26:44;8.48;;;6.32;;
49502;SDS011;35409;48.776;9.204;2023-07-08T02:29:12;8.73;;;6.82;;
49502;SDS011;35409;48.776;9.204;2023-07-08T02:31:38;9.93;;;7.68;;
49502;SDS011;35409;48.776;9.204;2023-07-08T02:34:04;9.50;;;6.85;;
49502;SDS011;35409;48.776;9.204;2023-07-08T02:36:30;8.27;;;6.30;;
49502;SDS011;35409;48.776;9.204;2023-07-08T02:38:56;10.55;;;6.85;;
49502;SDS011;35409;48.776;9.204;2023-07-08T02:41:25;11.95;;;6.75;;
49502;SDS011;35409;48.776;9.204;2023-07-08T02:43:51;10.73;;;6.45;;
49502;SDS011;35409;48.776;9.204;2023-07-08T02:46:17;9.10;;;7.03;;
49502;SDS011;35409;48.776;9.204;2023-07-08T02:48:43;8.73;;;6.47;;
49502;SDS011;35409;48.776;9.204;2023-07-08T02:51:09;8.85;;;6.28;;
49502;SDS011;35409;48.776;9.204;2023-07-08T02:53:35;9.50;;;6.30;;
49502;SDS011;35409;48.776;9.204;2023-07-08T02:56:01;8.30;;;6.47;;
49502;SDS011;35409;48.776;9.204;2023-07-08T02:58:27;8.02;;;6.50;;
49502;SDS011;35409;48.776;9.204;2023-07-08T03:00:54;12.75;;;6.20;;
49502;SDS011;35409;48.776;9.204;2023-07-08T03:03:23;8.15;;;6.25;;
49502;SDS011;35409;48.776;9.204;2023-07-08T03:08:21;8.38;;;6.25;;
49502;SDS011;35409;48.776;9.204;2023-07-08T03:10:48;11.65;;;6.85;;
49502;SDS011;35409;48.776;9.204;2023-07-08T03:13:14;10.85;;;6.93;;
49502;SDS011;35409;48.776;9.204;2023-07-08T03:15:45;10.65;;;6.82;;
49502;SDS011;35409;48.776;9.204;2023-07-08T03:18:11;8.82;;;6.18;;
49502;SDS011;35409;48.776;9.204;2023-07-08T03:20:39;8.93;;;6.38;;
49502;SDS011;35409;48.776;9.204;2023-07-08T03:23:05;8.63;;;6.53;;
49502;SDS011;35409;48.776;9.204;2023-07-08T03:25:38;9.38;;;6.78;;
49502;SDS011;35409;48.776;9.204;2023-07-08T03:28:04;10.40;;;7.00;;
49502;SDS011;35409;48.776;9.204;2023-07-08T03:30:40;10.00;;;6.80;;
49502;SDS011;35409;48.776;9.204;2023-07-08T03:33:06;9.18;;;6.43;;
49502;SDS011;35409;48.776;9.204;2023-07-08T03:35:32;11.63;;;7.40;;
49502;SDS011;35409;48.776;9.204;2023-07-08T03:37:58;12.00;;;7.55;;
49502;SDS011;35409;48.776;9.204;2023-07-08T03:40:24;15.65;;;8.88;;
49502;SDS011;35409;48.776;9.204;2023-07-08T03:42:53;12.25;;;8.05;;
49502;SDS011;35409;48.776;9.204;2023-07-08T03:45:19;13.30;;;8.85;;
49502;SDS011;35409;48.776;9.204;2023-07-08T03:47:45;12.45;;;7.47;;
49502;SDS011;35409;48.776;9.204;2023-07-08T03:50:18;8.82;;;7.13;;
49502;SDS011;35409;48.776;9.204;2023-07-08T03:52:47;11.95;;;7.75;;
49502;SDS011;35409;48.776;9.204;2023-07-08T03:55:16;9.90;;;7.40;;
49502;SDS011;35409;48.776;9.204;2023-07-08T03:57:42;11.38;;;7.93;;
49502;SDS011;35409;48.776;9.204;2023-07-08T04:00:08;12.93;;;8.40;;
49502;SDS011;35409;48.776;9.204;2023-07-08T04:02:35;13.70;;;7.88;;
49502;SDS011;35409;48.776;9.204;2023-07-08T04:05:01;12.55;;;7.40;;
49502;SDS011;35409;48.776;9.204;2023-07-08T04:07:28;10.43;;;7.32;;
49502;SDS011;35409;48.776;9.204;2023-07-08T04:09:54;12.00;;;7.15;;
49502;SDS011;35409;48.776;9.204;2023-07-08T04:12:20;13.38;;;8.40;;
49502;SDS011;35409;48.776;9.204;2023-07-08T04:14:46;10.98;;;6.68;;
49502;SDS011;35409;48.776;9.204;2023-07-08T04:17:12;10.23;;;7.40;;
49502;SDS011;35409;48.776;9.204;2023-07-08T04:19:41;10.35;;;6.85;;
49502;SDS011;35409;48.776;9.204;2023-07-08T04:22:11;14.63;;;8.02;;
49502;SDS011;35409;48.776;9.204;2023-07-08T04:24:40;10.77;;;7.53;;
49502;SDS011;35409;48.776;9.204;2023-07-08T04:27:07;11.50;;;8.15;;
49502;SDS011;35409;48.776;9.204;2023-07-08T04:29:51;11.52;;;7.72;;
49502;SDS011;35409;48.776;9.204;2023-07-08T04:32:20;9.23;;;6.85;;
49502;SDS011;35409;48.776;9.204;2023-07-08T04:34:52;10.88;;;7.20;;
49502;SDS011;35409;48.776;9.204;2023-07-08T04:37:18;11.32;;;7.97;;
49502;SDS011;35409;48.776;9.204;2023-07-08T04:39:46;12.88;;;7.47;;
49502;SDS011;35409;48.776;9.204;2023-07-08T04:42:13;13.55;;;6.82;;
49502;SDS011;35409;48.776;9.204;2023-07-08T04:44:42;9.50;;;6.72;;
49502;SDS011;35409;48.776;9.204;2023-07-08T04:47:09;10.13;;;7.30;;
49502;SDS011;35409;48.776;9.204;2023-07-08T04:49:44;9.80;;;6.85;;
49502;SDS011;35409;48.776;9.204;2023-07-08T04:52:16;9.40;;;6.95;;
49502;SDS011;35409;48.776;9.204;2023-07-08T04:54:45;11.15;;;8.20;;
49502;SDS011;35409;48.776;9.204;2023-07-08T04:57:18;9.77;;;7.35;;
49502;SDS011;35409;48.776;9.204;2023-07-08T04:59:46;9.98;;;7.30;;
49502;SDS011;35409;48.776;9.204;2023-07-08T05:02:12;12.77;;;7.85;;
49502;SDS011;35409;48.776;9.204;2023-07-08T05:04:41;10.38;;;7.30;;
49502;SDS011;35409;48.776;9.204;2023-07-08T05:07:14;10.23;;;7.38;;
49502;SDS011;35409;48.776;9.204;2023-07-08T05:09:45;14.32;;;8.00;;
49502;SDS011;35409;48.776;9.204;2023-07-08T05:12:14;12.13;;;8.18;;
49502;SDS011;35409;48.776;9.204;2023-07-08T05:14:43;12.70;;;8.57;;
49502;SDS011;35409;48.776;9.204;2023-07-08T05:17:09;13.27;;;8.75;;
49502;SDS011;35409;48.776;9.204;2023-07-08T05:19:37;14.02;;;7.82;;
49502;SDS011;35409;48.776;9.204;2023-07-08T05:22:08;11.45;;;8.30;;
49502;SDS011;35409;48.776;9.204;2023-07-08T05:24:39;11.60;;;7.57;;
49502;SDS011;35409;48.776;9.204;2023-07-08T05:27:06;10.15;;;7.78;;
49502;SDS011;35409;48.776;9.204;2023-07-08T05:29:35;13.25;;;8.60;;
49502;SDS011;35409;48.776;9.204;2023-07-08T05:32:01;10.00;;;7.82;;
49502;SDS011;35409;48.776;9.204;2023-07-08T05:34:27;9.77;;;7.68;;
49502;SDS011;35409;48.776;9.204;2023-07-08T05:36:56;10.48;;;7.85;;
49502;SDS011;35409;48.776;9.204;2023-07-08T05:39:22;10.05;;;8.25;;
49502;SDS011;35409;48.776;9.204;2023-07-08T05:41:59;12.00;;;8.18;;
49502;SDS011;35409;48.776;9.204;2023-07-08T05:44:25;11.30;;;8.35;;
49502;SDS011;35409;48.776;9.204;2023-07-08T05:46:54;12.63;;;7.90;;
49502;SDS011;35409;48.776;9.204;2023-07-08T05:49:23;10.35;;;8.07;;
49502;SDS011;35409;48.776;9.204;2023-07-08T05:51:51;9.63;;;6.95;;
49502;SDS011;35409;48.776;9.204;2023-07-08T05:54:17;8.57;;;6.93;;
49502;SDS011;35409;48.776;9.204;2023-07-08T05:56:49;12.45;;;7.78;;
49502;SDS011;35409;48.776;9.204;2023-07-08T05:59:18;10.80;;;7.65;;
49502;SDS011;35409;48.776;9.204;2023-07-08T06:01:55;10.32;;;7.82;;
49502;SDS011;35409;48.776;9.204;2023-07-08T06:04:21;10.65;;;7.72;;
49502;SDS011;35409;48.776;9.204;2023-07-08T06:06:49;11.60;;;7.90;;
49502;SDS011;35409;48.776;9.204;2023-07-08T06:09:15;10.23;;;7.60;;
49502;SDS011;35409;48.776;9.204;2023-07-08T06:11:43;10.93;;;7.35;;
49502;SDS011;35409;48.776;9.204;2023-07-08T06:14:12;9.32;;;7.05;;
49502;SDS011;35409;48.776;9.204;2023-07-08T06:16:38;11.93;;;9.20;;
49502;SDS011;35409;48.776;9.204;2023-07-08T06:19:04;16.63;;;9.48;;
49502;SDS011;35409;48.776;9.204;2023-07-08T06:21:30;15.13;;;9.98;;
49502;SDS011;35409;48.776;9.204;2023-07-08T06:23:56;19.45;;;9.10;;
49502;SDS011;35409;48.776;9.204;2023-07-08T06:26:22;18.38;;;9.52;;
49502;SDS011;35409;48.776;9.204;2023-07-08T06:28:51;14.07;;;8.35;;
49502;SDS011;35409;48.776;9.204;2023-07-08T06:31:17;10.75;;;8.00;;
49502;SDS011;35409;48.776;9.204;2023-07-08T06:33:44;12.35;;;8.65;;
49502;SDS011;35409;48.776;9.204;2023-07-08T06:36:10;12.13;;;7.82;;
49502;SDS011;35409;48.776;9.204;2023-07-08T06:38:36;11.07;;;8.27;;
49502;SDS011;35409;48.776;9.204;2023-07-08T06:41:05;12.95;;;8.45;;
49502;SDS011;35409;48.776;9.204;2023-07-08T06:43:33;9.25;;;7.20;;
49502;SDS011;35409;48.776;9.204;2023-07-08T06:46:08;9.43;;;7.65;;
49502;SDS011;35409;48.776;9.204;2023-07-08T06:48:34;12.30;;;7.57;;
49502;SDS011;35409;48.776;9.204;2023-07-08T06:51:02;12.10;;;7.55;;
49502;SDS011;35409;48.776;9.204;2023-07-08T06:53:33;10.15;;;6.95;;
49502;SDS011;35409;48.776;9.204;2023-07-08T06:55:59;11.05;;;6.78;;
49502;SDS011;35409;48.776;9.204;2023-07-08T06:58:27;8.13;;;6.15;;
49502;SDS011;35409;48.776;9.204;2023-07-08T07:00:53;9.02;;;6.43;;
49502;SDS011;35409;48.776;9.204;2023-07-08T07:03:29;8.65;;;5.82;;
49502;SDS011;35409;48.776;9.204;2023-07-08T07:05:57;10.25;;;6.10;;
49502;SDS011;35409;48.776;9.204;2023-07-08T07:08:23;7.38;;;5.60;;
49502;SDS011;35409;48.776;9.204;2023-07-08T07:10:48;9.13;;;5.72;;
49502;SDS011;35409;48.776;9.204;2023-07-08T07:13:14;7.65;;;5.88;;
49502;SDS011;35409;48.776;9.204;2023-07-08T07:15:39;10.88;;;5.60;;
49502;SDS011;35409;48.776;9.204;2023-07-08T07:18:05;9.60;;;5.90;;
49502;SDS011;35409;48.776;9.204;2023-07-08T07:20:31;9.90;;;6.22;;
49502;SDS011;35409;48.776;9.204;2023-07-08T07:23:00;7.43;;;5.45;;
49502;SDS011;35409;48.776;9.204;2023-07-08T07:25:28;7.95;;;5.30;;
49502;SDS011;35409;48.776;9.204;2023-07-08T07:27:54;9.52;;;5.20;;
49502;SDS011;35409;48.776;9.204;2023-07-08T07:30:22;7.50;;;5.40;;
49502;SDS011;35409;48.776;9.204;2023-07-08T07:32:48;7.63;;;4.90;;
49502;SDS011;35409;48.776;9.204;2023-07-08T07:35:14;8.38;;;5.15;;
49502;SDS011;35409;48.776;9.204;2023-07-08T07:37:40;7.50;;;5.30;;
49502;SDS011;35409;48.776;9.204;2023-07-08T07:40:09;7.93;;;4.60;;
49502;SDS011;35409;48.776;9.204;2023-07-08T07:42:37;8.45;;;6.25;;
49502;SDS011;35409;48.776;9.204;2023-07-08T07:45:04;6.78;;;4.88;;
49502;SDS011;35409;48.776;9.204;2023-07-08T07:47:30;8.15;;;5.05;;
49502;SDS011;35409;48.776;9.204;2023-07-08T07:49:56;10.05;;;5.47;;
49502;SDS011;35409;48.776;9.204;2023-07-08T07:52:28;8.95;;;5.38;;
49502;SDS011;35409;48.776;9.204;2023-07-08T07:54:58;5.68;;;4.40;;
49502;SDS011;35409;48.776;9.204;2023-07-08T07:57:33;7.63;;;4.40;;
49502;SDS011;35409;48.776;9.204;2023-07-08T08:00:02;11.85;;;5.50;;
49502;SDS011;35409;48.776;9.204;2023-07-08T08:02:42;9.73;;;4.95;;
49502;SDS011;35409;48.776;9.204;2023-07-08T08:05:11;7.63;;;4.78;;
49502;SDS011;35409;48.776;9.204;2023-07-08T08:07:36;7.80;;;5.40;;
49502;SDS011;35409;48.776;9.204;2023-07-08T08:10:02;6.88;;;4.57;;
49502;SDS011;35409;48.776;9.204;2023-07-08T08:12:33;7.90;;;4.30;;
49502;SDS011;35409;48.776;9.204;2023-07-08T08:15:04;6.28;;;4.18;;
49502;SDS011;35409;48.776;9.204;2023-07-08T08:17:33;8.23;;;4.78;;
49502;SDS011;35409;48.776;9.204;2023-07-08T08:19:59;7.50;;;4.55;;
49502;SDS011;35409;48.776;9.204;2023-07-08T08:22:27;5.65;;;4.53;;
49502;SDS011;35409;48.776;9.204;2023-07-08T08:25:17;6.18;;;3.90;;
49502;SDS011;35409;48.776;9.204;2023-07-08T08:27:42;5.03;;;4.00;;
49502;SDS011;35409;48.776;9.204;2023-07-08T08:30:09;6.80;;;4.03;;
49502;SDS011;35409;48.776;9.204;2023-07-08T08:32:40;5.72;;;3.78;;
49502;SDS011;35409;48.776;9.204;2023-07-08T08:35:06;7.97;;;4.00;;
49502;SDS011;35409;48.776;9.204;2023-07-08T08:37:37;9.52;;;4.00;;
49502;SDS011;35409;48.776;9.204;2023-07-08T08:40:02;6.18;;;3.80;;
49502;SDS011;35409;48.776;9.204;2023-07-08T08:43:16;6.30;;;3.50;;
49502;SDS011;35409;48.776;9.204;2023-07-08T08:45:29;6.05;;;3.70;;
49502;SDS011;35409;48.776;9.204;2023-07-08T08:48:03;5.78;;;3.40;;
49502;SDS011;35409;48.776;9.204;2023-07-08T08:50:42;5.70;;;3.70;;
49502;SDS011;35409;48.776;9.204;2023-07-08T08:53:17;5.95;;;3.53;;
49502;SDS011;35409;48.776;9.204;2023-07-08T09:01:23;5.93;;;3.63;;
49502;SDS011;35409;48.776;9.204;2023-07-08T09:06:36;5.57;;;3.60;;
49502;SDS011;35409;48.776;9.204;2023-07-08T09:09:06;5.78;;;3.58;;
49502;SDS011;35409;48.776;9.204;2023-07-08T09:14:36;5.53;;;3.33;;
49502;SDS011;35409;48.776;9.204;2023-07-08T09:17:24;5.25;;;3.10;;
49502;SDS011;35409;48.776;9.204;2023-07-08T09:25:32;5.00;;;2.88;;
49502;SDS011;35409;48.776;9.204;2023-07-08T09:27:59;7.45;;;3.28;;
49502;SDS011;35409;48.776;9.204;2023-07-08T09:30:27;6.60;;;3.47;;
49502;SDS011;35409;48.776;9.204;2023-07-08T09:32:56;4.43;;;2.97;;
49502;SDS011;35409;48.776;9.204;2023-07-08T09:35:23;3.55;;;3.10;;
49502;SDS011;35409;48.776;9.204;2023-07-08T09:37:51;4.63;;;2.95;;
49502;SDS011;35409;48.776;9.204;2023-07-08T09:40:19;3.97;;;3.47;;
49502;SDS011;35409;48.776;9.204;2023-07-08T09:42:51;5.75;;;3.63;;
49502;SDS011;35409;48.776;9.204;2023-07-08T09:45:40;5.43;;;3.20;;
49502;SDS011;35409;48.776;9.204;2023-07-08T09:48:14;6.55;;;3.72;;
49502;SDS011;35409;48.776;9.204;2023-07-08T09:50:52;5.60;;;3.53;;
49502;SDS011;35409;48.776;9.204;2023-07-08T09:53:22;5.05;;;3.40;;
49502;SDS011;35409;48.776;9.204;2023-07-08T09:55:57;5.55;;;3.88;;
49502;SDS011;35409;48.776;9.204;2023-07-08T09:58:25;4.93;;;3.20;;
49502;SDS011;35409;48.776;9.204;2023-07-08T10:01:09;4.88;;;3.72;;
49502;SDS011;35409;48.776;9.204;2023-07-08T10:03:48;4.15;;;3.08;;
49502;SDS011;35409;48.776;9.204;2023-07-08T10:06:26;3.88;;;2.85;;
49502;SDS011;35409;48.776;9.204;2023-07-08T10:09:02;6.47;;;3.03;;
49502;SDS011;35409;48.776;9.204;2023-07-08T10:11:30;4.68;;;2.88;;
49502;SDS011;35409;48.776;9.204;2023-07-08T10:14:04;4.40;;;3.60;;
49502;SDS011;35409;48.776;9.204;2023-07-08T10:16:36;6.72;;;4.10;;
49502;SDS011;35409;48.776;9.204;2023-07-08T10:19:13;9.82;;;4.78;;
49502;SDS011;35409;48.776;9.204;2023-07-08T10:24:37;6.40;;;3.88;;
49502;SDS011;35409;48.776;9.204;2023-07-08T10:29:58;6.72;;;4.63;;
49502;SDS011;35409;48.776;9.204;2023-07-08T10:32:39;7.57;;;4.90;;
49502;SDS011;35409;48.776;9.204;2023-07-08T10:35:21;5.28;;;4.10;;
49502;SDS011;35409;48.776;9.204;2023-07-08T10:40:45;8.80;;;4.25;;
49502;SDS011;35409;48.776;9.204;2023-07-08T10:52:00;8.07;;;3.60;;
49502;SDS011;35409;48.776;9.204;2023-07-08T10:54:40;6.07;;;3.88;;
49502;SDS011;35409;48.776;9.204;2023-07-08T11:08:53;6.78;;;3.90;;
49502;SDS011;35409;48.776;9.204;2023-07-08T11:13:53;4.75;;;3.63;;
49502;SDS011;35409;48.776;9.204;2023-07-08T11:16:25;4.93;;;3.72;;
49502;SDS011;35409;48.776;9.204;2023-07-08T11:19:16;5.22;;;3.38;;
49502;SDS011;35409;48.776;9.204;2023-07-08T11:21:50;4.68;;;3.53;;
49502;SDS011;35409;48.776;9.204;2023-07-08T11:27:07;5.10;;;3.42;;
49502;SDS011;35409;48.776;9.204;2023-07-08T11:30:05;4.22;;;3.08;;
49502;SDS011;35409;48.776;9.204;2023-07-08T11:32:54;8.48;;;3.63;;
49502;SDS011;35409;48.776;9.204;2023-07-08T11:38:14;6.40;;;3.05;;
49502;SDS011;35409;48.776;9.204;2023-07-08T11:40:56;5.07;;;3.03;;
49502;SDS011;35409;48.776;9.204;2023-07-08T11:44:10;4.47;;;3.22;;
49502;SDS011;35409;48.776;9.204;2023-07-08T11:46:53;5.30;;;3.38;;
49502;SDS011;35409;48.776;9.204;2023-07-08T11:49:22;9.05;;;3.25;;
49502;SDS011;35409;48.776;9.204;2023-07-08T11:51:56;6.07;;;3.03;;
49502;SDS011;35409;48.776;9.204;2023-07-08T11:54:29;6.18;;;3.17;;
49502;SDS011;35409;48.776;9.204;2023-07-08T11:57:01;6.35;;;2.85;;
49502;SDS011;35409;48.776;9.204;2023-07-08T11:59:40;5.90;;;3.50;;
49502;SDS011;35409;48.776;9.204;2023-07-08T12:02:11;14.65;;;3.38;;
49502;SDS011;35409;48.776;9.204;2023-07-08T12:05:40;5.60;;;2.95;;
49502;SDS011;35409;48.776;9.204;2023-07-08T12:07:58;5.88;;;3.20;;
49502;SDS011;35409;48.776;9.204;2023-07-08T12:10:36;5.57;;;3.38;;
49502;SDS011;35409;48.776;9.204;2023-07-08T12:13:14;4.35;;;3.20;;
49502;SDS011;35409;48.776;9.204;2023-07-08T12:15:45;5.55;;;3.75;;
49502;SDS011;35409;48.776;9.204;2023-07-08T12:18:14;5.07;;;3.45;;
49502;SDS011;35409;48.776;9.204;2023-07-08T12:20:48;4.22;;;3.30;;
49502;SDS011;35409;48.776;9.204;2023-07-08T12:23:29;3.78;;;3.35;;
49502;SDS011;35409;48.776;9.204;2023-07-08T12:25:55;4.93;;;3.17;;
49502;SDS011;35409;48.776;9.204;2023-07-08T12:28:22;6.68;;;3.10;;
49502;SDS011;35409;48.776;9.204;2023-07-08T12:30:51;6.75;;;3.17;;
49502;SDS011;35409;48.776;9.204;2023-07-08T12:33:31;3.78;;;2.75;;
49502;SDS011;35409;48.776;9.204;2023-07-08T12:36:09;4.10;;;2.92;;
49502;SDS011;35409;48.776;9.204;2023-07-08T12:38:39;4.30;;;2.95;;
49502;SDS011;35409;48.776;9.204;2023-07-08T12:41:10;5.25;;;3.00;;
49502;SDS011;35409;48.776;9.204;2023-07-08T12:43:44;7.88;;;2.67;;
49502;SDS011;35409;48.776;9.204;2023-07-08T12:46:13;3.55;;;2.80;;
49502;SDS011;35409;48.776;9.204;2023-07-08T12:48:46;3.38;;;2.60;;
49502;SDS011;35409;48.776;9.204;2023-07-08T12:51:26;4.25;;;2.75;;
49502;SDS011;35409;48.776;9.204;2023-07-08T12:53:53;5.25;;;2.90;;
49502;SDS011;35409;48.776;9.204;2023-07-08T12:56:24;5.57;;;2.72;;
49502;SDS011;35409;48.776;9.204;2023-07-08T12:58:53;6.18;;;3.00;;
49502;SDS011;35409;48.776;9.204;2023-07-08T13:01:24;5.30;;;3.00;;
49502;SDS011;35409;48.776;9.204;2023-07-08T13:03:52;4.15;;;3.08;;
49502;SDS011;35409;48.776;9.204;2023-07-08T13:06:25;5.13;;;3.03;;
49502;SDS011;35409;48.776;9.204;2023-07-08T13:08:54;3.42;;;2.42;;
49502;SDS011;35409;48.776;9.204;2023-07-08T13:11:45;3.47;;;2.60;;
49502;SDS011;35409;48.776;9.204;2023-07-08T13:14:19;7.22;;;3.08;;
49502;SDS011;35409;48.776;9.204;2023-07-08T13:16:46;6.15;;;2.85;;
49502;SDS011;35409;48.776;9.204;2023-07-08T13:19:14;3.58;;;2.67;;
49502;SDS011;35409;48.776;9.204;2023-07-08T13:21:43;5.55;;;2.95;;
49502;SDS011;35409;48.776;9.204;2023-07-08T13:24:10;3.80;;;2.50;;
49502;SDS011;35409;48.776;9.204;2023-07-08T13:26:36;7.60;;;3.30;;
49502;SDS011;35409;48.776;9.204;2023-07-08T13:29:15;3.83;;;2.72;;
49502;SDS011;35409;48.776;9.204;2023-07-08T13:31:44;4.25;;;3.15;;
49502;SDS011;35409;48.776;9.204;2023-07-08T13:34:16;5.35;;;3.20;;
49502;SDS011;35409;48.776;9.204;2023-07-08T13:36:48;5.50;;;2.67;;
49502;SDS011;35409;48.776;9.204;2023-07-08T13:39:20;5.10;;;2.80;;
49502;SDS011;35409;48.776;9.204;2023-07-08T13:41:47;5.10;;;2.63;;
49502;SDS011;35409;48.776;9.204;2023-07-08T13:44:14;5.15;;;2.50;;
49502;SDS011;35409;48.776;9.204;2023-07-08T13:46:44;6.45;;;2.60;;
49502;SDS011;35409;48.776;9.204;2023-07-08T13:49:11;6.40;;;3.08;;
49502;SDS011;35409;48.776;9.204;2023-07-08T13:51:40;4.55;;;2.80;;
49502;SDS011;35409;48.776;9.204;2023-07-08T13:54:14;3.28;;;2.47;;
49502;SDS011;35409;48.776;9.204;2023-07-08T13:56:43;3.10;;;2.67;;
49502;SDS011;35409;48.776;9.204;2023-07-08T13:59:15;3.92;;;2.50;;
49502;SDS011;35409;48.776;9.204;2023-07-08T14:01:42;3.88;;;2.60;;
49502;SDS011;35409;48.776;9.204;2023-07-08T14:04:12;8.77;;;2.90;;
49502;SDS011;35409;48.776;9.204;2023-07-08T14:06:41;3.33;;;2.40;;
49502;SDS011;35409;48.776;9.204;2023-07-08T14:09:17;3.33;;;2.40;;
49502;SDS011;35409;48.776;9.204;2023-07-08T14:11:44;3.58;;;2.88;;
49502;SDS011;35409;48.776;9.204;2023-07-08T14:14:13;2.33;;;2.03;;
49502;SDS011;35409;48.776;9.204;2023-07-08T14:16:43;4.97;;;2.70;;
49502;SDS011;35409;48.776;9.204;2023-07-08T14:19:29;3.35;;;2.92;;
49502;SDS011;35409;48.776;9.204;2023-07-08T14:22:00;4.35;;;2.55;;
49502;SDS011;35409;48.776;9.204;2023-07-08T14:24:27;6.78;;;2.85;;
49502;SDS011;35409;48.776;9.204;2023-07-08T14:26:55;4.85;;;2.90;;
49502;SDS011;35409;48.776;9.204;2023-07-08T14:29:25;4.03;;;3.03;;
49502;SDS011;35409;48.776;9.204;2023-07-08T14:31:53;4.28;;;2.65;;
49502;SDS011;35409;48.776;9.204;2023-07-08T14:34:23;4.30;;;3.10;;
49502;SDS011;35409;48.776;9.204;2023-07-08T14:36:52;4.47;;;3.00;;
49502;SDS011;35409;48.776;9.204;2023-07-08T14:39:19;3.50;;;2.72;;
49502;SDS011;35409;48.776;9.204;2023-07-08T14:41:45;4.05;;;2.88;;
49502;SDS011;35409;48.776;9.204;2023-07-08T14:44:19;5.28;;;3.00;;
49502;SDS011;35409;48.776;9.204;2023-07-08T14:46:46;6.05;;;3.00;;
49502;SDS011;35409;48.776;9.204;2023-07-08T14:49:22;4.25;;;3.20;;
49502;SDS011;35409;48.776;9.204;2023-07-08T14:51:51;4.80;;;2.60;;
49502;SDS011;35409;48.776;9.204;2023-07-08T14:54:20;3.42;;;2.65;;
49502;SDS011;35409;48.776;9.204;2023-07-08T14:56:46;3.63;;;3.25;;
49502;SDS011;35409;48.776;9.204;2023-07-08T14:59:20;4.53;;;3.00;;
49502;SDS011;35409;48.776;9.204;2023-07-08T15:01:48;3.40;;;2.88;;
49502;SDS011;35409;48.776;9.204;2023-07-08T15:04:18;6.35;;;3.10;;
49502;SDS011;35409;48.776;9.204;2023-07-08T15:06:47;3.38;;;2.83;;
49502;SDS011;35409;48.776;9.204;2023-07-08T15:09:14;6.90;;;2.92;;
49502;SDS011;35409;48.776;9.204;2023-07-08T15:11:42;3.90;;;2.90;;
49502;SDS011;35409;48.776;9.204;2023-07-08T15:14:16;3.10;;;2.78;;
49502;SDS011;35409;48.776;9.204;2023-07-08T15:16:42;3.60;;;2.70;;
49502;SDS011;35409;48.776;9.204;2023-07-08T15:19:10;3.00;;;2.70;;
49502;SDS011;35409;48.776;9.204;2023-07-08T15:21:42;5.45;;;3.13;;
49502;SDS011;35409;48.776;9.204;2023-07-08T15:24:08;4.82;;;3.45;;
49502;SDS011;35409;48.776;9.204;2023-07-08T15:26:43;3.47;;;2.85;;
49502;SDS011;35409;48.776;9.204;2023-07-08T15:29:17;3.67;;;2.97;;
49502;SDS011;35409;48.776;9.204;2023-07-08T15:31:48;4.05;;;2.80;;
49502;SDS011;35409;48.776;9.204;2023-07-08T15:34:17;5.17;;;3.40;;
49502;SDS011;35409;48.776;9.204;2023-07-08T15:36:47;5.30;;;3.33;;
49502;SDS011;35409;48.776;9.204;2023-07-08T15:39:19;3.90;;;2.88;;
49502;SDS011;35409;48.776;9.204;2023-07-08T15:41:46;5.68;;;3.17;;
49502;SDS011;35409;48.776;9.204;2023-07-08T15:44:12;3.30;;;3.00;;
49502;SDS011;35409;48.776;9.204;2023-07-08T15:46:45;7.00;;;3.70;;
49502;SDS011;35409;48.776;9.204;2023-07-08T15:49:16;6.22;;;3.20;;
49502;SDS011;35409;48.776;9.204;2023-07-08T15:51:42;5.90;;;3.10;;
49502;SDS011;35409;48.776;9.204;2023-07-08T15:54:09;5.00;;;3.45;;
49502;SDS011;35409;48.776;9.204;2023-07-08T15:56:38;5.57;;;3.35;;
49502;SDS011;35409;48.776;9.204;2023-07-08T16:01:31;5.15;;;3.20;;
49502;SDS011;35409;48.776;9.204;2023-07-08T16:04:00;5.60;;;2.83;;